sensor_id;sensor_type;location;lat;lon;timestamp;temperature;humidity
52565;DHT22;38460;53.106;7.004;2023-05-10T00:00:52;14.00;99.90
52565;DHT22;38460;53.106;7.004;2023-05-10T00:03:18;14.00;99.90
52565;DHT22;38460;53.106;7.004;2023-05-10T00:05:44;14.00;99.90
52565;DHT22;38460;53.106;7.004;2023-05-10T00:08:09;14.00;99.90
52565;DHT22;38460;53.106;7.004;2023-05-10T00:10:35;13.90;99.90
52565;DHT22;38460;53.106;7.004;2023-05-10T00:13:02;13.90;99.90
52565;DHT22;38460;53.106;7.004;2023-05-10T00:15:28;13.90;99.90
52565;DHT22;38460;53.106;7.004;2023-05-10T00:17:56;13.90;99.90
52565;DHT22;38460;53.106;7.004;2023-05-10T00:20:22;13.90;99.90
52565;DHT22;38460;53.106;7.004;2023-05-10T00:22:48;13.90;99.90
52565;DHT22;38460;53.106;7.004;2023-05-10T00:25:13;13.90;99.90
52565;DHT22;38460;53.106;7.004;2023-05-10T00:27:39;13.90;99.90
52565;DHT22;38460;53.106;7.004;2023-05-10T00:30:05;13.90;99.90
52565;DHT22;38460;53.106;7.004;2023-05-10T00:32:31;13.90;99.90
52565;DHT22;38460;53.106;7.004;2023-05-10T00:34:57;13.80;99.90
52565;DHT22;38460;53.106;7.004;2023-05-10T00:37:23;13.80;99.90
52565;DHT22;38460;53.106;7.004;2023-05-10T00:39:49;13.80;99.90
52565;DHT22;38460;53.106;7.004;2023-05-10T00:42:14;13.70;99.90
52565;DHT22;38460;53.106;7.004;2023-05-10T00:44:40;13.70;99.90
52565;DHT22;38460;53.106;7.004;2023-05-10T00:47:06;13.60;99.90
52565;DHT22;38460;53.106;7.004;2023-05-10T00:49:32;13.60;99.90
52565;DHT22;38460;53.106;7.004;2023-05-10T00:51:58;13.50;99.90
52565;DHT22;38460;53.106;7.004;2023-05-10T00:54:24;13.50;99.90
52565;DHT22;38460;53.106;7.004;2023-05-10T00:56:50;13.50;99.90
52565;DHT22;38460;53.106;7.004;2023-05-10T00:59:17;13.40;99.90
52565;DHT22;38460;53.106;7.004;2023-05-10T01:01:44;13.40;99.90
52565;DHT22;38460;53.106;7.004;2023-05-10T01:04:11;13.40;99.90
52565;DHT22;38460;53.106;7.004;2023-05-10T01:06:41;13.30;99.90
52565;DHT22;38460;53.106;7.004;2023-05-10T01:09:07;13.30;99.90
52565;DHT22;38460;53.106;7.004;2023-05-10T01:11:38;13.30;99.90
52565;DHT22;38460;53.106;7.004;2023-05-10T01:14:04;13.30;99.90
52565;DHT22;38460;53.106;7.004;2023-05-10T01:16:36;13.30;99.90
52565;DHT22;38460;53.106;7.004;2023-05-10T01:19:11;13.30;99.90
52565;DHT22;38460;53.106;7.004;2023-05-10T01:21:38;13.20;99.90
52565;DHT22;38460;53.106;7.004;2023-05-10T01:32:03;13.10;99.90
52565;DHT22;38460;53.106;7.004;2023-05-10T01:34:59;13.10;99.90
52565;DHT22;38460;53.106;7.004;2023-05-10T01:40:52;13.10;99.90
52565;DHT22;38460;53.106;7.004;2023-05-10T01:43:30;13.10;99.90
52565;DHT22;38460;53.106;7.004;2023-05-10T01:46:04;13.00;99.90
52565;DHT22;38460;53.106;7.004;2023-05-10T01:48:40;13.00;99.90
52565;DHT22;38460;53.106;7.004;2023-05-10T01:51:12;13.00;99.90
52565;DHT22;38460;53.106;7.004;2023-05-10T01:53:40;13.00;99.90
52565;DHT22;38460;53.106;7.004;2023-05-10T01:56:07;13.00;99.90
52565;DHT22;38460;53.106;7.004;2023-05-10T01:58:34;13.00;99.90
52565;DHT22;38460;53.106;7.004;2023-05-10T02:01:03;13.00;99.90
52565;DHT22;38460;53.106;7.004;2023-05-10T02:03:31;12.90;99.90
52565;DHT22;38460;53.106;7.004;2023-05-10T02:05:59;13.00;99.90
52565;DHT22;38460;53.106;7.004;2023-05-10T02:08:26;12.90;99.90
52565;DHT22;38460;53.106;7.004;2023-05-10T02:10:54;12.90;99.90
52565;DHT22;38460;53.106;7.004;2023-05-10T02:13:21;12.90;99.90
52565;DHT22;38460;53.106;7.004;2023-05-10T02:15:49;12.90;99.90
52565;DHT22;38460;53.106;7.004;2023-05-10T02:18:17;12.90;99.90
52565;DHT22;38460;53.106;7.004;2023-05-10T02:20:45;13.00;99.90
52565;DHT22;38460;53.106;7.004;2023-05-10T02:23:12;12.90;99.90
52565;DHT22;38460;53.106;7.004;2023-05-10T02:25:39;12.90;99.90
52565;DHT22;38460;53.106;7.004;2023-05-10T02:28:06;12.90;99.90
52565;DHT22;38460;53.106;7.004;2023-05-10T02:30:33;12.90;99.90
52565;DHT22;38460;53.106;7.004;2023-05-10T02:33:01;12.90;99.90
52565;DHT22;38460;53.106;7.004;2023-05-10T02:35:28;12.90;99.90
52565;DHT22;38460;53.106;7.004;2023-05-10T02:37:54;12.90;99.90
52565;DHT22;38460;53.106;7.004;2023-05-10T02:40:21;12.90;99.90
52565;DHT22;38460;53.106;7.004;2023-05-10T02:42:50;12.90;99.90
52565;DHT22;38460;53.106;7.004;2023-05-10T02:45:20;13.00;99.90
52565;DHT22;38460;53.106;7.004;2023-05-10T02:47:48;12.90;99.90
52565;DHT22;38460;53.106;7.004;2023-05-10T02:50:14;12.90;99.90
52565;DHT22;38460;53.106;7.004;2023-05-10T02:52:44;12.90;99.90
52565;DHT22;38460;53.106;7.004;2023-05-10T02:55:14;12.90;99.90
52565;DHT22;38460;53.106;7.004;2023-05-10T02:57:51;12.90;99.90
52565;DHT22;38460;53.106;7.004;2023-05-10T03:00:18;12.90;99.90
52565;DHT22;38460;53.106;7.004;2023-05-10T03:02:43;12.90;99.90
52565;DHT22;38460;53.106;7.004;2023-05-10T03:05:09;12.80;99.90
52565;DHT22;38460;53.106;7.004;2023-05-10T03:07:35;12.80;99.90
52565;DHT22;38460;53.106;7.004;2023-05-10T03:10:01;12.80;99.90
52565;DHT22;38460;53.106;7.004;2023-05-10T03:15:57;12.80;99.90
52565;DHT22;38460;53.106;7.004;2023-05-10T03:23:35;12.70;99.90
52565;DHT22;38460;53.106;7.004;2023-05-10T03:26:04;12.70;99.90
52565;DHT22;38460;53.106;7.004;2023-05-10T03:28:31;12.70;99.90
52565;DHT22;38460;53.106;7.004;2023-05-10T03:30:59;12.70;99.90
52565;DHT22;38460;53.106;7.004;2023-05-10T03:33:25;12.70;99.90
52565;DHT22;38460;53.106;7.004;2023-05-10T03:35:50;12.70;99.90
52565;DHT22;38460;53.106;7.004;2023-05-10T03:38:16;12.70;99.90
52565;DHT22;38460;53.106;7.004;2023-05-10T03:40:42;12.70;99.90
52565;DHT22;38460;53.106;7.004;2023-05-10T03:43:07;12.70;99.90
52565;DHT22;38460;53.106;7.004;2023-05-10T03:45:33;12.70;99.90
52565;DHT22;38460;53.106;7.004;2023-05-10T03:47:59;12.70;99.90
52565;DHT22;38460;53.106;7.004;2023-05-10T03:50:25;12.60;99.90
52565;DHT22;38460;53.106;7.004;2023-05-10T03:52:51;12.70;99.90
52565;DHT22;38460;53.106;7.004;2023-05-10T03:55:17;12.60;99.90
52565;DHT22;38460;53.106;7.004;2023-05-10T03:57:43;12.60;99.90
52565;DHT22;38460;53.106;7.004;2023-05-10T04:00:09;12.60;99.90
52565;DHT22;38460;53.106;7.004;2023-05-10T04:02:35;12.60;99.90
52565;DHT22;38460;53.106;7.004;2023-05-10T04:05:01;12.60;99.90
52565;DHT22;38460;53.106;7.004;2023-05-10T04:07:28;12.60;99.90
52565;DHT22;38460;53.106;7.004;2023-05-10T04:09:53;12.60;99.90
52565;DHT22;38460;53.106;7.004;2023-05-10T04:12:19;12.60;99.90
52565;DHT22;38460;53.106;7.004;2023-05-10T04:14:45;12.60;99.90
52565;DHT22;38460;53.106;7.004;2023-05-10T04:17:11;12.60;99.90
52565;DHT22;38460;53.106;7.004;2023-05-10T04:19:36;12.60;99.90
52565;DHT22;38460;53.106;7.004;2023-05-10T04:22:02;12.60;99.90
52565;DHT22;38460;53.106;7.004;2023-05-10T04:24:28;12.60;99.90
52565;DHT22;38460;53.106;7.004;2023-05-10T04:26:54;12.60;99.90
52565;DHT22;38460;53.106;7.004;2023-05-10T04:29:20;12.60;99.90
52565;DHT22;38460;53.106;7.004;2023-05-10T04:31:46;12.60;99.90
52565;DHT22;38460;53.106;7.004;2023-05-10T04:34:12;12.50;99.90
52565;DHT22;38460;53.106;7.004;2023-05-10T04:36:38;12.60;99.90
52565;DHT22;38460;53.106;7.004;2023-05-10T04:39:04;12.60;99.90
52565;DHT22;38460;53.106;7.004;2023-05-10T04:41:30;12.60;99.90
52565;DHT22;38460;53.106;7.004;2023-05-10T04:43:55;12.60;99.90
52565;DHT22;38460;53.106;7.004;2023-05-10T04:46:21;12.60;99.90
52565;DHT22;38460;53.106;7.004;2023-05-10T04:48:47;12.60;99.90
52565;DHT22;38460;53.106;7.004;2023-05-10T04:51:13;12.60;99.90
52565;DHT22;38460;53.106;7.004;2023-05-10T04:53:39;12.60;99.90
52565;DHT22;38460;53.106;7.004;2023-05-10T04:56:05;12.60;99.90
52565;DHT22;38460;53.106;7.004;2023-05-10T04:58:31;12.60;99.90
52565;DHT22;38460;53.106;7.004;2023-05-10T05:00:57;12.60;99.90
52565;DHT22;38460;53.106;7.004;2023-05-10T05:03:22;12.60;99.90
52565;DHT22;38460;53.106;7.004;2023-05-10T05:05:48;12.60;99.90
52565;DHT22;38460;53.106;7.004;2023-05-10T05:08:14;12.60;99.90
52565;DHT22;38460;53.106;7.004;2023-05-10T05:10:40;12.60;99.90
52565;DHT22;38460;53.106;7.004;2023-05-10T05:13:05;12.60;99.90
52565;DHT22;38460;53.106;7.004;2023-05-10T05:15:31;12.60;99.90
52565;DHT22;38460;53.106;7.004;2023-05-10T05:17:57;12.50;99.90
52565;DHT22;38460;53.106;7.004;2023-05-10T05:20:23;12.60;99.90
52565;DHT22;38460;53.106;7.004;2023-05-10T05:22:49;12.60;99.90
52565;DHT22;38460;53.106;7.004;2023-05-10T05:25:15;12.60;99.90
52565;DHT22;38460;53.106;7.004;2023-05-10T05:27:41;12.50;99.90
52565;DHT22;38460;53.106;7.004;2023-05-10T05:30:07;12.50;99.90
52565;DHT22;38460;53.106;7.004;2023-05-10T05:32:33;12.50;99.90
52565;DHT22;38460;53.106;7.004;2023-05-10T05:34:59;12.50;99.90
52565;DHT22;38460;53.106;7.004;2023-05-10T05:37:25;12.50;99.90
52565;DHT22;38460;53.106;7.004;2023-05-10T05:39:50;12.50;99.90
52565;DHT22;38460;53.106;7.004;2023-05-10T05:42:16;12.50;99.90
52565;DHT22;38460;53.106;7.004;2023-05-10T05:44:44;12.50;99.90
52565;DHT22;38460;53.106;7.004;2023-05-10T05:47:10;12.50;99.90
52565;DHT22;38460;53.106;7.004;2023-05-10T05:49:36;12.50;99.90
52565;DHT22;38460;53.106;7.004;2023-05-10T05:52:03;12.50;99.90
52565;DHT22;38460;53.106;7.004;2023-05-10T05:54:29;12.50;99.90
52565;DHT22;38460;53.106;7.004;2023-05-10T05:57:00;12.50;99.90
52565;DHT22;38460;53.106;7.004;2023-05-10T05:59:26;12.50;99.90
52565;DHT22;38460;53.106;7.004;2023-05-10T06:01:52;12.50;99.90
52565;DHT22;38460;53.106;7.004;2023-05-10T06:04:18;12.50;99.90
52565;DHT22;38460;53.106;7.004;2023-05-10T06:06:44;12.50;99.90
52565;DHT22;38460;53.106;7.004;2023-05-10T06:09:10;12.50;99.90
52565;DHT22;38460;53.106;7.004;2023-05-10T06:11:36;12.50;99.90
52565;DHT22;38460;53.106;7.004;2023-05-10T06:14:02;12.50;99.90
52565;DHT22;38460;53.106;7.004;2023-05-10T06:16:34;12.50;99.90
52565;DHT22;38460;53.106;7.004;2023-05-10T06:19:00;12.50;99.90
52565;DHT22;38460;53.106;7.004;2023-05-10T06:21:26;12.50;99.90
52565;DHT22;38460;53.106;7.004;2023-05-10T06:23:51;12.50;99.90
52565;DHT22;38460;53.106;7.004;2023-05-10T06:26:17;12.50;99.90
52565;DHT22;38460;53.106;7.004;2023-05-10T06:28:43;12.60;99.90
52565;DHT22;38460;53.106;7.004;2023-05-10T06:31:08;12.50;99.90
52565;DHT22;38460;53.106;7.004;2023-05-10T06:33:36;12.50;99.90
52565;DHT22;38460;53.106;7.004;2023-05-10T06:36:02;12.50;99.90
52565;DHT22;38460;53.106;7.004;2023-05-10T06:38:28;12.50;99.90
52565;DHT22;38460;53.106;7.004;2023-05-10T06:40:54;12.50;99.90
52565;DHT22;38460;53.106;7.004;2023-05-10T06:43:19;12.50;99.90
52565;DHT22;38460;53.106;7.004;2023-05-10T06:45:45;12.50;99.90
52565;DHT22;38460;53.106;7.004;2023-05-10T06:48:11;12.50;99.90
52565;DHT22;38460;53.106;7.004;2023-05-10T06:50:37;12.50;99.90
52565;DHT22;38460;53.106;7.004;2023-05-10T06:53:03;12.50;99.90
52565;DHT22;38460;53.106;7.004;2023-05-10T06:55:29;12.50;99.90
52565;DHT22;38460;53.106;7.004;2023-05-10T06:57:54;12.50;99.90
52565;DHT22;38460;53.106;7.004;2023-05-10T07:00:21;12.50;99.90
52565;DHT22;38460;53.106;7.004;2023-05-10T07:02:47;12.50;99.90
52565;DHT22;38460;53.106;7.004;2023-05-10T07:05:13;12.50;99.90
52565;DHT22;38460;53.106;7.004;2023-05-10T07:07:39;12.50;99.90
52565;DHT22;38460;53.106;7.004;2023-05-10T07:10:05;12.60;99.90
52565;DHT22;38460;53.106;7.004;2023-05-10T07:12:32;12.60;99.90
52565;DHT22;38460;53.106;7.004;2023-05-10T07:14:58;12.60;99.90
52565;DHT22;38460;53.106;7.004;2023-05-10T07:17:24;12.60;99.90
52565;DHT22;38460;53.106;7.004;2023-05-10T07:19:50;12.60;99.90
52565;DHT22;38460;53.106;7.004;2023-05-10T07:22:16;12.60;99.90
52565;DHT22;38460;53.106;7.004;2023-05-10T07:24:42;12.60;99.90
52565;DHT22;38460;53.106;7.004;2023-05-10T07:27:08;12.60;99.90
52565;DHT22;38460;53.106;7.004;2023-05-10T07:29:35;12.60;99.90
52565;DHT22;38460;53.106;7.004;2023-05-10T07:32:01;12.60;99.90
52565;DHT22;38460;53.106;7.004;2023-05-10T07:34:27;12.60;99.90
52565;DHT22;38460;53.106;7.004;2023-05-10T07:36:54;12.60;99.90
52565;DHT22;38460;53.106;7.004;2023-05-10T07:39:20;12.60;99.90
52565;DHT22;38460;53.106;7.004;2023-05-10T07:41:46;12.60;99.90
52565;DHT22;38460;53.106;7.004;2023-05-10T07:44:12;12.60;99.90
52565;DHT22;38460;53.106;7.004;2023-05-10T07:46:37;12.60;99.90
52565;DHT22;38460;53.106;7.004;2023-05-10T07:49:04;12.60;99.90
52565;DHT22;38460;53.106;7.004;2023-05-10T07:51:29;12.60;99.90
52565;DHT22;38460;53.106;7.004;2023-05-10T07:53:55;12.60;99.90
52565;DHT22;38460;53.106;7.004;2023-05-10T07:56:24;12.60;99.90
52565;DHT22;38460;53.106;7.004;2023-05-10T07:58:51;12.60;99.90
52565;DHT22;38460;53.106;7.004;2023-05-10T08:01:17;12.60;99.90
52565;DHT22;38460;53.106;7.004;2023-05-10T08:03:43;12.60;99.90
52565;DHT22;38460;53.106;7.004;2023-05-10T08:06:09;12.60;99.90
52565;DHT22;38460;53.106;7.004;2023-05-10T08:08:34;12.60;99.90
52565;DHT22;38460;53.106;7.004;2023-05-10T08:11:00;12.60;99.90
52565;DHT22;38460;53.106;7.004;2023-05-10T08:13:26;12.60;99.90
52565;DHT22;38460;53.106;7.004;2023-05-10T08:15:51;12.60;99.90
52565;DHT22;38460;53.106;7.004;2023-05-10T08:18:19;12.60;99.90
52565;DHT22;38460;53.106;7.004;2023-05-10T08:20:45;12.60;99.90
52565;DHT22;38460;53.106;7.004;2023-05-10T08:23:12;12.60;99.90
52565;DHT22;38460;53.106;7.004;2023-05-10T08:25:38;12.60;99.90
52565;DHT22;38460;53.106;7.004;2023-05-10T08:28:04;12.70;99.90
52565;DHT22;38460;53.106;7.004;2023-05-10T08:30:30;12.70;99.90
52565;DHT22;38460;53.106;7.004;2023-05-10T08:32:56;12.70;99.90
52565;DHT22;38460;53.106;7.004;2023-05-10T08:35:21;12.70;99.90
52565;DHT22;38460;53.106;7.004;2023-05-10T08:37:47;12.70;99.90
52565;DHT22;38460;53.106;7.004;2023-05-10T08:40:14;12.70;99.90
52565;DHT22;38460;53.106;7.004;2023-05-10T08:42:45;12.70;99.90
52565;DHT22;38460;53.106;7.004;2023-05-10T08:45:13;12.60;99.90
52565;DHT22;38460;53.106;7.004;2023-05-10T08:47:41;12.60;99.90
52565;DHT22;38460;53.106;7.004;2023-05-10T08:50:07;12.70;99.90
52565;DHT22;38460;53.106;7.004;2023-05-10T08:52:38;12.70;99.90
52565;DHT22;38460;53.106;7.004;2023-05-10T08:55:05;12.70;99.90
52565;DHT22;38460;53.106;7.004;2023-05-10T08:57:31;12.70;99.90
52565;DHT22;38460;53.106;7.004;2023-05-10T08:59:59;12.70;99.90
52565;DHT22;38460;53.106;7.004;2023-05-10T09:02:26;12.70;99.90
52565;DHT22;38460;53.106;7.004;2023-05-10T09:04:52;12.70;99.90
52565;DHT22;38460;53.106;7.004;2023-05-10T09:07:19;12.70;99.90
52565;DHT22;38460;53.106;7.004;2023-05-10T09:09:46;12.70;99.90
52565;DHT22;38460;53.106;7.004;2023-05-10T09:12:13;12.80;99.90
52565;DHT22;38460;53.106;7.004;2023-05-10T09:14:41;12.80;99.90
52565;DHT22;38460;53.106;7.004;2023-05-10T09:17:07;12.80;99.90
52565;DHT22;38460;53.106;7.004;2023-05-10T09:19:33;12.80;99.90
52565;DHT22;38460;53.106;7.004;2023-05-10T09:21:59;12.80;99.90
52565;DHT22;38460;53.106;7.004;2023-05-10T09:24:27;12.80;99.90
52565;DHT22;38460;53.106;7.004;2023-05-10T09:26:52;12.80;99.90
52565;DHT22;38460;53.106;7.004;2023-05-10T09:29:18;12.80;99.90
52565;DHT22;38460;53.106;7.004;2023-05-10T09:31:51;12.80;99.90
52565;DHT22;38460;53.106;7.004;2023-05-10T09:34:19;12.80;99.90
52565;DHT22;38460;53.106;7.004;2023-05-10T09:36:56;12.80;99.90
52565;DHT22;38460;53.106;7.004;2023-05-10T09:41:58;12.80;99.90
52565;DHT22;38460;53.106;7.004;2023-05-10T09:44:26;12.90;99.90
52565;DHT22;38460;53.106;7.004;2023-05-10T09:46:51;12.80;99.90
52565;DHT22;38460;53.106;7.004;2023-05-10T09:49:19;12.80;99.90
52565;DHT22;38460;53.106;7.004;2023-05-10T09:51:46;13.00;99.90
52565;DHT22;38460;53.106;7.004;2023-05-10T09:54:13;12.90;99.90
52565;DHT22;38460;53.106;7.004;2023-05-10T09:56:40;12.90;99.90
52565;DHT22;38460;53.106;7.004;2023-05-10T09:59:10;12.90;99.90
52565;DHT22;38460;53.106;7.004;2023-05-10T10:01:37;12.90;99.90
52565;DHT22;38460;53.106;7.004;2023-05-10T10:04:08;12.90;99.90
52565;DHT22;38460;53.106;7.004;2023-05-10T10:06:38;12.90;99.90
52565;DHT22;38460;53.106;7.004;2023-05-10T10:09:07;13.10;99.90
52565;DHT22;38460;53.106;7.004;2023-05-10T10:11:38;13.10;99.90
52565;DHT22;38460;53.106;7.004;2023-05-10T10:14:04;13.20;99.90
52565;DHT22;38460;53.106;7.004;2023-05-10T10:16:31;13.30;99.90
52565;DHT22;38460;53.106;7.004;2023-05-10T10:18:57;13.40;99.90
52565;DHT22;38460;53.106;7.004;2023-05-10T10:21:24;13.40;99.90
52565;DHT22;38460;53.106;7.004;2023-05-10T10:23:50;13.40;99.90
52565;DHT22;38460;53.106;7.004;2023-05-10T10:26:17;13.50;99.90
52565;DHT22;38460;53.106;7.004;2023-05-10T10:34:09;13.70;99.90
52565;DHT22;38460;53.106;7.004;2023-05-10T10:36:46;13.80;99.90
52565;DHT22;38460;53.106;7.004;2023-05-10T10:39:12;13.80;99.90
52565;DHT22;38460;53.106;7.004;2023-05-10T10:41:49;13.90;99.90
52565;DHT22;38460;53.106;7.004;2023-05-10T10:47:03;14.10;99.90
52565;DHT22;38460;53.106;7.004;2023-05-10T10:49:52;14.10;99.90
52565;DHT22;38460;53.106;7.004;2023-05-10T10:52:38;14.10;99.90
52565;DHT22;38460;53.106;7.004;2023-05-10T10:57:47;14.10;99.90
52565;DHT22;38460;53.106;7.004;2023-05-10T11:00:27;14.10;99.90
52565;DHT22;38460;53.106;7.004;2023-05-10T11:02:57;14.10;99.90
52565;DHT22;38460;53.106;7.004;2023-05-10T11:08:19;14.10;99.90
52565;DHT22;38460;53.106;7.004;2023-05-10T11:10:52;14.10;99.90
52565;DHT22;38460;53.106;7.004;2023-05-10T11:13:32;14.20;99.90
52565;DHT22;38460;53.106;7.004;2023-05-10T11:15:58;14.20;99.90
52565;DHT22;38460;53.106;7.004;2023-05-10T11:18:29;14.10;99.90
52565;DHT22;38460;53.106;7.004;2023-05-10T11:21:00;14.10;99.90
52565;DHT22;38460;53.106;7.004;2023-05-10T11:23:32;14.00;99.90
52565;DHT22;38460;53.106;7.004;2023-05-10T11:26:13;14.00;99.90
52565;DHT22;38460;53.106;7.004;2023-05-10T11:28:47;14.10;99.90
52565;DHT22;38460;53.106;7.004;2023-05-10T11:31:14;14.10;99.90
52565;DHT22;38460;53.106;7.004;2023-05-10T11:33:44;14.20;99.90
52565;DHT22;38460;53.106;7.004;2023-05-10T11:36:14;14.30;99.90
52565;DHT22;38460;53.106;7.004;2023-05-10T11:38:40;14.30;99.90
52565;DHT22;38460;53.106;7.004;2023-05-10T11:41:08;14.40;99.90
52565;DHT22;38460;53.106;7.004;2023-05-10T11:43:35;14.40;99.90
52565;DHT22;38460;53.106;7.004;2023-05-10T11:46:07;14.50;99.90
52565;DHT22;38460;53.106;7.004;2023-05-10T11:48:33;14.50;99.90
52565;DHT22;38460;53.106;7.004;2023-05-10T11:51:00;14.40;99.90
52565;DHT22;38460;53.106;7.004;2023-05-10T11:53:31;14.40;99.90
52565;DHT22;38460;53.106;7.004;2023-05-10T11:56:07;14.40;99.90
52565;DHT22;38460;53.106;7.004;2023-05-10T11:58:34;14.40;99.90
52565;DHT22;38460;53.106;7.004;2023-05-10T12:01:01;14.40;99.90
52565;DHT22;38460;53.106;7.004;2023-05-10T12:03:27;14.50;99.90
52565;DHT22;38460;53.106;7.004;2023-05-10T12:05:55;14.50;99.90
52565;DHT22;38460;53.106;7.004;2023-05-10T12:08:30;14.40;99.90
52565;DHT22;38460;53.106;7.004;2023-05-10T12:11:09;14.40;99.90
52565;DHT22;38460;53.106;7.004;2023-05-10T12:13:43;14.40;99.90
52565;DHT22;38460;53.106;7.004;2023-05-10T12:16:14;14.40;99.90
52565;DHT22;38460;53.106;7.004;2023-05-10T12:18:41;14.40;99.90
52565;DHT22;38460;53.106;7.004;2023-05-10T12:21:10;14.40;99.90
52565;DHT22;38460;53.106;7.004;2023-05-10T12:23:36;14.40;99.90
52565;DHT22;38460;53.106;7.004;2023-05-10T12:26:03;14.40;99.90
52565;DHT22;38460;53.106;7.004;2023-05-10T12:28:33;14.50;99.90
52565;DHT22;38460;53.106;7.004;2023-05-10T12:31:02;14.50;99.90
52565;DHT22;38460;53.106;7.004;2023-05-10T12:33:44;14.60;99.90
52565;DHT22;38460;53.106;7.004;2023-05-10T12:36:13;14.60;99.90
52565;DHT22;38460;53.106;7.004;2023-05-10T12:38:41;14.60;99.90
52565;DHT22;38460;53.106;7.004;2023-05-10T12:41:15;14.60;99.90
52565;DHT22;38460;53.106;7.004;2023-05-10T12:43:41;14.60;99.90
52565;DHT22;38460;53.106;7.004;2023-05-10T12:46:12;14.60;99.90
52565;DHT22;38460;53.106;7.004;2023-05-10T12:48:41;14.50;99.90
52565;DHT22;38460;53.106;7.004;2023-05-10T12:51:07;14.50;99.90
52565;DHT22;38460;53.106;7.004;2023-05-10T12:53:39;14.40;99.90
52565;DHT22;38460;53.106;7.004;2023-05-10T12:56:05;14.40;99.90
52565;DHT22;38460;53.106;7.004;2023-05-10T12:58:31;14.40;99.90
52565;DHT22;38460;53.106;7.004;2023-05-10T13:00:58;14.40;99.90
52565;DHT22;38460;53.106;7.004;2023-05-10T13:03:24;14.40;99.90
52565;DHT22;38460;53.106;7.004;2023-05-10T13:05:50;14.40;99.90
52565;DHT22;38460;53.106;7.004;2023-05-10T13:08:16;14.40;99.90
52565;DHT22;38460;53.106;7.004;2023-05-10T13:10:42;14.50;99.90
52565;DHT22;38460;53.106;7.004;2023-05-10T13:13:08;14.50;99.90
52565;DHT22;38460;53.106;7.004;2023-05-10T13:15:34;14.60;99.90
52565;DHT22;38460;53.106;7.004;2023-05-10T13:18:00;14.70;99.90
52565;DHT22;38460;53.106;7.004;2023-05-10T13:20:26;14.70;99.90
52565;DHT22;38460;53.106;7.004;2023-05-10T13:22:53;14.80;99.90
52565;DHT22;38460;53.106;7.004;2023-05-10T13:25:19;14.80;99.90
52565;DHT22;38460;53.106;7.004;2023-05-10T13:27:45;14.90;99.90
52565;DHT22;38460;53.106;7.004;2023-05-10T13:30:11;14.90;99.90
52565;DHT22;38460;53.106;7.004;2023-05-10T13:32:37;14.90;99.90
52565;DHT22;38460;53.106;7.004;2023-05-10T13:35:03;15.00;99.90
52565;DHT22;38460;53.106;7.004;2023-05-10T13:37:30;15.00;99.90
52565;DHT22;38460;53.106;7.004;2023-05-10T13:39:56;15.10;99.90
52565;DHT22;38460;53.106;7.004;2023-05-10T13:42:22;15.10;99.90
52565;DHT22;38460;53.106;7.004;2023-05-10T13:44:49;15.10;99.90
52565;DHT22;38460;53.106;7.004;2023-05-10T13:47:15;15.10;99.90
52565;DHT22;38460;53.106;7.004;2023-05-10T13:49:41;15.20;99.90
52565;DHT22;38460;53.106;7.004;2023-05-10T13:52:07;15.20;99.90
52565;DHT22;38460;53.106;7.004;2023-05-10T13:54:38;15.20;99.90
52565;DHT22;38460;53.106;7.004;2023-05-10T13:57:04;15.20;99.90
52565;DHT22;38460;53.106;7.004;2023-05-10T13:59:30;15.20;99.90
52565;DHT22;38460;53.106;7.004;2023-05-10T14:02:00;15.20;99.90
52565;DHT22;38460;53.106;7.004;2023-05-10T14:04:28;15.10;99.90
52565;DHT22;38460;53.106;7.004;2023-05-10T14:06:54;15.00;99.90
52565;DHT22;38460;53.106;7.004;2023-05-10T14:09:19;15.00;99.90
52565;DHT22;38460;53.106;7.004;2023-05-10T14:11:45;14.90;99.90
52565;DHT22;38460;53.106;7.004;2023-05-10T14:14:12;14.90;99.90
52565;DHT22;38460;53.106;7.004;2023-05-10T14:16:42;14.90;99.90
52565;DHT22;38460;53.106;7.004;2023-05-10T14:19:09;14.90;99.90
52565;DHT22;38460;53.106;7.004;2023-05-10T14:21:34;14.90;99.90
52565;DHT22;38460;53.106;7.004;2023-05-10T14:24:00;14.90;99.90
52565;DHT22;38460;53.106;7.004;2023-05-10T14:26:26;14.80;99.90
52565;DHT22;38460;53.106;7.004;2023-05-10T14:28:51;14.90;99.90
52565;DHT22;38460;53.106;7.004;2023-05-10T14:31:17;14.90;99.90
52565;DHT22;38460;53.106;7.004;2023-05-10T14:33:46;14.90;99.90
52565;DHT22;38460;53.106;7.004;2023-05-10T14:36:12;15.00;99.90
52565;DHT22;38460;53.106;7.004;2023-05-10T14:38:39;15.10;99.90
52565;DHT22;38460;53.106;7.004;2023-05-10T14:41:05;15.10;99.90
52565;DHT22;38460;53.106;7.004;2023-05-10T14:43:31;15.20;99.90
52565;DHT22;38460;53.106;7.004;2023-05-10T14:45:56;15.20;99.90
52565;DHT22;38460;53.106;7.004;2023-05-10T14:48:22;15.20;99.90
52565;DHT22;38460;53.106;7.004;2023-05-10T14:50:48;15.20;99.90
52565;DHT22;38460;53.106;7.004;2023-05-10T14:53:15;15.20;99.90
52565;DHT22;38460;53.106;7.004;2023-05-10T14:55:41;15.10;99.90
52565;DHT22;38460;53.106;7.004;2023-05-10T14:58:07;15.10;99.90
52565;DHT22;38460;53.106;7.004;2023-05-10T15:00:33;15.10;99.90
52565;DHT22;38460;53.106;7.004;2023-05-10T15:02:59;15.10;99.90
52565;DHT22;38460;53.106;7.004;2023-05-10T15:05:25;15.10;99.90
52565;DHT22;38460;53.106;7.004;2023-05-10T15:07:50;15.10;99.90
52565;DHT22;38460;53.106;7.004;2023-05-10T15:10:17;15.10;99.90
52565;DHT22;38460;53.106;7.004;2023-05-10T15:12:43;15.10;99.90
52565;DHT22;38460;53.106;7.004;2023-05-10T15:15:09;15.10;99.90
52565;DHT22;38460;53.106;7.004;2023-05-10T15:17:35;15.20;99.90
52565;DHT22;38460;53.106;7.004;2023-05-10T15:20:01;15.20;99.90
52565;DHT22;38460;53.106;7.004;2023-05-10T15:22:29;15.10;99.90
52565;DHT22;38460;53.106;7.004;2023-05-10T15:24:55;15.20;99.90
52565;DHT22;38460;53.106;7.004;2023-05-10T15:27:21;15.20;99.90
52565;DHT22;38460;53.106;7.004;2023-05-10T15:29:47;15.20;99.90
52565;DHT22;38460;53.106;7.004;2023-05-10T15:32:12;15.20;99.90
52565;DHT22;38460;53.106;7.004;2023-05-10T15:34:38;15.20;99.90
52565;DHT22;38460;53.106;7.004;2023-05-10T15:37:04;15.20;99.90
52565;DHT22;38460;53.106;7.004;2023-05-10T15:39:29;15.20;99.90
52565;DHT22;38460;53.106;7.004;2023-05-10T15:41:55;15.20;99.90
52565;DHT22;38460;53.106;7.004;2023-05-10T15:44:21;15.20;99.90
52565;DHT22;38460;53.106;7.004;2023-05-10T15:46:47;15.20;99.90
52565;DHT22;38460;53.106;7.004;2023-05-10T15:49:13;15.20;99.90
52565;DHT22;38460;53.106;7.004;2023-05-10T15:51:39;15.20;99.90
52565;DHT22;38460;53.106;7.004;2023-05-10T15:54:05;15.20;99.90
52565;DHT22;38460;53.106;7.004;2023-05-10T15:56:32;15.20;99.90
52565;DHT22;38460;53.106;7.004;2023-05-10T15:58:58;15.10;99.90
52565;DHT22;38460;53.106;7.004;2023-05-10T16:01:24;15.10;99.90
52565;DHT22;38460;53.106;7.004;2023-05-10T16:03:50;15.10;99.90
52565;DHT22;38460;53.106;7.004;2023-05-10T16:06:16;15.10;99.90